Flight Track Log - Related Links

Times and Time Zones

All times are in EDT time to prevent confusion due to time zone crossing. See the ASQ4253 flight status page for this flight to view local times or setup timezone preferences in your user account.

Time Position Orientation Groundspeed Altitude Reporting Facility
EDT Latitude Longitude Course Direction KTS MPH feet Rate Location/Type
Tue 05:11:57 PM 33.8667 -81.0467 169° South 225 259 3,800  Level Jacksonville Center
Tue 05:12:57 PM 33.8022 -81.0656 194° South 255 293 5,600 2,050 Climbing Jacksonville Center
Tue 05:13:00 PM 33.7203 -81.5572 237° Southwest  Level FlightAware Approximate
Tue 05:13:57 PM 33.7617 -81.1439 238° Southwest 237 273 7,900  Level Jacksonville Center
Tue 05:14:00 PM 33.6617 -81.6647 237° Southwest  Level FlightAware Approximate
Tue 05:14:57 PM 33.7272 -81.2194 241° Southwest 249 287 9,800  Level Jacksonville Center
Tue 05:15:00 PM 33.6081 -81.7756 243° Southwest  Level FlightAware Approximate
Tue 05:15:57 PM 33.6928 -81.3075 245° Southwest 273 314 11,000  Level Jacksonville Center
Tue 05:16:00 PM 33.5504 -81.8926 236° Southwest  Level FlightAware Approximate
Tue 05:16:57 PM 33.6522 -81.4056 244° Southwest 304 350 11,900  Level Jacksonville Center
Tue 05:19:18 PM 33.5267 -81.6442 238° Southwest 353 406 14,500 1,075 Climbing Atlanta Center
Tue 05:20:18 PM 33.4575 -81.7306 226° Southwest 358 412 15,500 1,000 Climbing Atlanta Center
Tue 05:21:18 PM 33.4050 -81.8317 238° Southwest 369 425 16,500 1,000 Climbing Atlanta Center
Tue 05:22:18 PM 33.3756 -81.9467 253° West 352 405 17,500 900 Climbing Atlanta Center
Tue 05:23:18 PM 33.3461 -82.0594 253° West 357 411 18,300 900 Climbing Atlanta Center
Tue 05:24:18 PM 33.3189 -82.1769 255° West 367 422 19,300 1,000 Climbing Atlanta Center
Tue 05:25:18 PM 33.2892 -82.2942 253° West 367 422 20,300 1,000 Climbing Atlanta Center
Tue 05:26:18 PM 33.2594 -82.4142 254° West 367 422 21,300 950 Climbing Atlanta Center
Tue 05:27:18 PM 33.2319 -82.5314 254° West 367 422 22,200 950 Climbing Atlanta Center
Tue 05:28:18 PM 33.1997 -82.6486 252° West 367 422 23,200 1,000 Climbing Atlanta Center
Tue 05:29:18 PM 33.1719 -82.7681 255° West 367 422 24,200 1,000 Climbing Atlanta Center
Tue 05:30:18 PM 33.1458 -82.8803 254° West 367 422 25,200 950 Climbing Atlanta Center
Tue 05:31:18 PM 33.1156 -82.9847 251° West 367 422 26,100 950 Climbing Atlanta Center
Tue 05:32:18 PM 33.0872 -83.0992 254° West 366 421 27,100 1,000 Climbing Atlanta Center
Tue 05:33:18 PM 33.0589 -83.2111 253° West 366 421 28,100 1,000 Climbing Atlanta Center
Tue 05:34:18 PM 33.0303 -83.3400 255° West 361 415 29,100 1,000 Climbing Atlanta Center
Tue 05:35:18 PM 33.0039 -83.4517 254° West 361 415 30,100 1,000 Climbing Atlanta Center
Tue 05:36:18 PM 32.9731 -83.5608 251° West 361 415 31,100 1,000 Climbing Atlanta Center
Tue 05:37:18 PM 32.9442 -83.6725 253° West 361 415 32,100 1,000 Climbing Atlanta Center
Tue 05:38:18 PM 32.9153 -83.7789 252° West 361 415 33,100 950 Climbing Atlanta Center
Tue 05:39:18 PM 32.8883 -83.8903 254° West 356 410 34,000 900 Climbing Atlanta Center
Tue 05:40:18 PM 32.8569 -83.9992 251° West 356 410 34,900 800 Climbing Atlanta Center
Tue 05:41:18 PM 32.8300 -84.1081 254° West 351 404 35,600 550 Climbing Atlanta Center
Tue 05:42:18 PM 32.8006 -84.2094 251° West 351 404 36,000 200 Climbing Atlanta Center
Tue 05:43:18 PM 32.7689 -84.3353 253° West 364 419 36,000  Level Atlanta Center
Tue 05:44:18 PM 32.7372 -84.4586 253° West 377 434 36,000  Level Atlanta Center
Tue 05:45:18 PM 32.7014 -84.5894 252° West 395 455 36,000  Level Atlanta Center
Tue 05:46:18 PM 32.6547 -84.7172 247° West 416 479 36,000  Level Atlanta Center
Tue 05:47:18 PM 32.6061 -84.8231 241° Southwest 429 494 36,000  Level Atlanta Center
Tue 05:48:18 PM 32.5364 -84.9653 240° Southwest 447 514 36,000  Level Atlanta Center
Tue 05:49:18 PM 32.4747 -85.0975 241° Southwest 455 524 36,000  Level Atlanta Center
Tue 05:50:18 PM 32.4150 -85.2297 242° Southwest 455 524 36,000  Level Atlanta Center
Tue 05:51:18 PM 32.3594 -85.3592 243° Southwest 455 524 36,000  Level Atlanta Center
Tue 05:52:18 PM 32.2953 -85.4886 240° Southwest 455 524 36,000  Level Atlanta Center
Tue 05:53:18 PM 32.2353 -85.6203 242° Southwest 455 524 36,000  Level Atlanta Center
Tue 05:54:18 PM 32.1731 -85.7517 241° Southwest 455 524 36,000  Level Atlanta Center
Tue 05:55:18 PM 32.1128 -85.8878 242° Southwest 460 529 36,000  Level Atlanta Center
Tue 05:56:18 PM 32.0500 -86.0189 241° Southwest 460 529 36,000  Level Atlanta Center
Tue 05:57:18 PM 31.9811 -86.1592 240° Southwest 455 524 36,000  Level Atlanta Center
Tue 05:58:18 PM 31.9203 -86.2900 241° Southwest 455 524 36,000  Level Atlanta Center
Tue 05:59:18 PM 31.8594 -86.4206 241° Southwest 455 524 36,000  Level Atlanta Center
Tue 06:00:18 PM 31.8003 -86.5508 242° Southwest 455 524 36,000  Level Atlanta Center
Tue 06:01:18 PM 31.7392 -86.6833 242° Southwest 455 524 36,000  Level Atlanta Center
Tue 06:02:18 PM 31.6758 -86.8108 240° Southwest 455 524 36,000  Level Atlanta Center
Tue 06:04:33 PM 31.5475 -87.0806 241° Southwest 456 525 36,000  Level Houston Center
Tue 06:05:35 PM 31.4856 -87.2106 241° Southwest 457 526 36,000  Level Houston Center
Tue 06:06:37 PM 31.4186 -87.3714 244° Southwest 459 528 36,000  Level Houston Center
Tue 06:07:39 PM 31.3708 -87.5081 248° West 456 525 36,000  Level Houston Center
Tue 06:08:41 PM 31.3261 -87.6450 249° West 454 522 36,000  Level Houston Center
Tue 06:09:43 PM 31.2925 -87.7878 255° West 455 524 36,000  Level Houston Center
Tue 06:10:45 PM 31.2567 -87.9275 253° West 454 522 36,000  Level Houston Center
Tue 06:11:47 PM 31.2108 -88.0967 252° West 463 533 36,000 -48 Level Houston Center
Tue 06:12:49 PM 31.1836 -88.2411 258° West 461 531 35,900  Descending Houston Center
Tue 06:13:51 PM 31.1494 -88.3858 255° West 464 534 36,000  Climbing Houston Center
Tue 06:14:53 PM 31.1133 -88.5217 253° West 454 522 35,900  Descending Houston Center
Tue 06:15:55 PM 31.0764 -88.6825 255° West 449 517 36,000 48 Climbing Houston Center
Tue 06:16:57 PM 31.0428 -88.8231 254° West 454 522 36,000  Level Houston Center
Tue 06:17:59 PM 31.0089 -88.9731 255° West 453 521 36,000  Level Houston Center
Tue 06:19:01 PM 30.9756 -89.1136 255° West 453 521 36,000 -48 Level Houston Center
Tue 06:20:03 PM 30.9431 -89.2547 255° West 455 524 35,900 -48 Descending Houston Center
Tue 06:21:05 PM 30.9081 -89.3942 254° West 456 525 35,900 48 Level Houston Center
Tue 06:22:07 PM 30.8742 -89.5350 254° West 456 525 36,000 48 Climbing Houston Center
Tue 06:23:09 PM 30.8344 -89.7042 255° West 458 527 36,000 -48 Level Houston Center
Tue 06:24:11 PM 30.7947 -89.8442 252° West 466 536 35,900  Descending Houston Center
Tue 06:25:13 PM 30.7389 -89.9764 244° Southwest 466 536 36,000 48 Climbing Houston Center
Tue 06:26:15 PM 30.6800 -90.1075 242° Southwest 467 537 36,000  Level Houston Center
Tue 06:27:17 PM 30.6142 -90.2361 239° Southwest 472 543 36,000  Level Houston Center
Tue 06:28:19 PM 30.5356 -90.3911 240° Southwest 469 540 36,000  Level Houston Center
Tue 06:29:21 PM 30.4697 -90.5194 239° Southwest 466 536 36,000  Level Houston Center
Tue 06:30:23 PM 30.4019 -90.6494 239° Southwest 472 543 36,000  Level Houston Center
Tue 06:31:25 PM 30.3344 -90.7794 239° Southwest 472 543 36,000  Level Houston Center
Tue 06:32:27 PM 30.2664 -90.9094 239° Southwest 473 544 36,000  Level Houston Center
Tue 06:33:29 PM 30.2008 -91.0383 240° Southwest 469 540 36,000 -48 Level Houston Center
Tue 06:34:31 PM 30.1214 -91.1944 240° Southwest 471 542 35,900  Descending Houston Center
Tue 06:35:33 PM 30.0542 -91.3236 239° Southwest 471 542 36,000 49 Climbing Houston Center
Tue 06:36:34 PM 29.9861 -91.4536 239° Southwest 474 545 36,000  Level Houston Center
Tue 06:37:36 PM 29.9178 -91.5844 239° Southwest 475 547 36,000  Level Houston Center
Tue 06:38:38 PM 29.8419 -91.7258 238° Southwest 469 540 36,000  Level Houston Center
Tue 06:39:40 PM 29.7750 -91.8547 239° Southwest 469 540 36,000  Level Houston Center
Tue 06:40:42 PM 29.7083 -91.9811 239° Southwest 464 534 36,000  Level Houston Center
Tue 06:41:44 PM 29.6425 -92.1072 239° Southwest 461 531 36,000  Level Houston Center
Tue 06:42:46 PM 29.5753 -92.2319 238° Southwest 459 528 36,000  Level Houston Center
Tue 06:43:48 PM 29.5078 -92.3594 239° Southwest 463 533 36,000  Level Houston Center
Tue 06:44:50 PM 29.4575 -92.5219 250° West 459 528 36,000  Level Houston Center
Tue 06:45:52 PM 29.4650 -92.6656 273° West 455 524 36,000  Level Houston Center
Tue 06:46:54 PM 29.4719 -92.8111 273° West 457 526 36,000 -435 Level Houston Center
Tue 06:47:56 PM 29.4786 -92.9572 273° West 458 527 35,100 -1,355 Descending Houston Center
Tue 06:48:58 PM 29.4847 -93.1047 273° West 462 532 33,200 -2,129 Descending Houston Center
Tue 06:50:00 PM 29.4917 -93.2528 273° West 465 535 30,700 -2,710 Descending Houston Center
Tue 06:51:02 PM 29.4986 -93.4283 273° West 459 528 27,600 -2,710 Descending Houston Center
Tue 06:52:04 PM 29.5056 -93.5767 273° West 463 533 25,100 -1,742 Descending Houston Center
Tue 06:53:06 PM 29.5097 -93.7219 272° West 457 526 24,000 -871 Descending Houston Center
Tue 06:54:08 PM 29.5164 -93.8622 273° West 444 511 23,300 -1,898 Descending Houston Center
Tue 06:54:44 PM 29.5172 -93.9483 271° West 409 471 20,900 -4,119 Descending Houston Center
Tue 06:55:15 PM 29.5206 -94.0225 273° West 404 465 18,700 -3,341 Descending Houston Center
Tue 06:56:12 PM 29.5247 -94.1233 273° West 411 473 16,000 -2,746 Descending Houston Center
Tue 06:57:13 PM 29.5294 -94.2639 272° West 390 449 13,300 -1,785 Descending Houston Center
Tue 06:58:13 PM 29.5456 -94.3725 280° West 332 382 12,400 -1,403 Descending Houston Center
Tue 06:59:17 PM 29.5842 -94.4653 296° West 322 371 10,400 -1,762 Descending Houston Center
Tue 07:00:19 PM 29.6211 -94.5511 296° West 306 352 8,700 -1,645 Descending Houston Center
Tue 07:01:21 PM 29.6553 -94.6306 296° West 284 327 7,000 -1,355 Descending Houston Center
Tue 07:02:23 PM 29.7078 -94.6900 315° West 277 319 5,900 -1,065 Descending Houston Center
Tue 07:03:25 PM 29.7806 -94.7517 324° Northwest 273 314 4,800 -966 Descending Houston Center
Tue 07:04:21 PM 29.8394 -94.8017 324° Northwest 278 320 4,000 -780 Descending Houston Center
Tue 07:05:28 PM 29.8922 -94.8697 312° West 265 305 3,200 -469 Descending Houston Center
Tue 07:06:29 PM 29.9392 -94.9436 306° West 266 306 3,000 -488 Descending Houston Center
Tue 07:07:31 PM 29.9733 -95.0164 298° West 260 299 2,200 -476 Descending Houston Center
Tue 07:08:35 PM 29.9786 -95.0919 275° West 236 272 2,000 -98 Descending Houston Center
Tue 07:09:33 PM 29.9778 -95.1533 269° West 202 232 2,000 -159 Level Houston Center
Tue 07:10:28 PM 29.9783 -95.2042 271° West 154 177 1,700 -516 Descending Houston Center
Tue 07:11:41 PM 29.9783 -95.2558 270° West 158 182 900 -622 Descending Houston Center
Tue 07:12:43 PM 29.9781 -95.3069 270° West 150 173 300 -581 Descending Houston Center

Login

Don't have an account? Register now (free) for customized features, flight alerts, and more!